sensor_id;sensor_type;location;lat;lon;timestamp;pressure;altitude;pressure_sealevel;temperature;humidity
68873;BME280;55907;50.806;12.882;2023-04-22T00:01:36;970.6;;;11.5;55.3
68873;BME280;55907;50.806;12.882;2023-04-22T00:04:37;970.6;;;11.5;55.2
68873;BME280;55907;50.806;12.882;2023-04-22T00:07:39;970.6;;;11.4;55.4
68873;BME280;55907;50.806;12.882;2023-04-22T00:10:40;970.5;;;11.4;55.5
68873;BME280;55907;50.806;12.882;2023-04-22T00:13:42;970.5;;;11.4;55.9
68873;BME280;55907;50.806;12.882;2023-04-22T00:16:43;970.5;;;11.3;55.9
68873;BME280;55907;50.806;12.882;2023-04-22T00:19:45;970.5;;;11.3;55.8
68873;BME280;55907;50.806;12.882;2023-04-22T00:22:47;970.5;;;11.3;55.8
68873;BME280;55907;50.806;12.882;2023-04-22T00:25:48;970.4;;;11.4;55.7
68873;BME280;55907;50.806;12.882;2023-04-22T00:28:50;970.4;;;11.4;55.7
68873;BME280;55907;50.806;12.882;2023-04-22T00:31:51;970.4;;;11.4;55.8
68873;BME280;55907;50.806;12.882;2023-04-22T00:34:53;970.4;;;11.4;55.7
68873;BME280;55907;50.806;12.882;2023-04-22T00:37:54;970.4;;;11.4;55.6
68873;BME280;55907;50.806;12.882;2023-04-22T00:40:56;970.4;;;11.4;55.7
68873;BME280;55907;50.806;12.882;2023-04-22T00:43:59;970.3;;;11.4;55.9
68873;BME280;55907;50.806;12.882;2023-04-22T00:46:59;970.3;;;11.4;56.1
68873;BME280;55907;50.806;12.882;2023-04-22T00:50:01;970.3;;;11.3;56.2
68873;BME280;55907;50.806;12.882;2023-04-22T00:53:02;970.3;;;11.3;56.1
68873;BME280;55907;50.806;12.882;2023-04-22T00:56:04;970.3;;;11.3;56.2
68873;BME280;55907;50.806;12.882;2023-04-22T00:59:06;970.2;;;11.3;56.1
68873;BME280;55907;50.806;12.882;2023-04-22T01:02:07;970.2;;;11.3;56.2
68873;BME280;55907;50.806;12.882;2023-04-22T01:05:09;970.2;;;11.2;56.4
68873;BME280;55907;50.806;12.882;2023-04-22T01:08:11;970.2;;;11.2;56.5
68873;BME280;55907;50.806;12.882;2023-04-22T01:11:12;970.1;;;11.1;56.8
68873;BME280;55907;50.806;12.882;2023-04-22T01:14:13;970.1;;;11.1;56.9
68873;BME280;55907;50.806;12.882;2023-04-22T01:17:15;970.1;;;11.1;57.0
68873;BME280;55907;50.806;12.882;2023-04-22T01:20:16;970.1;;;11.1;57.1
68873;BME280;55907;50.806;12.882;2023-04-22T01:23:19;970.1;;;11.0;57.2
68873;BME280;55907;50.806;12.882;2023-04-22T01:26:19;970.1;;;11.0;57.4
68873;BME280;55907;50.806;12.882;2023-04-22T01:29:21;970.1;;;10.9;57.8
68873;BME280;55907;50.806;12.882;2023-04-22T01:32:22;970.0;;;10.9;58.1
68873;BME280;55907;50.806;12.882;2023-04-22T01:35:24;970.0;;;10.9;58.1
68873;BME280;55907;50.806;12.882;2023-04-22T01:38:25;970.1;;;10.8;58.1
68873;BME280;55907;50.806;12.882;2023-04-22T01:41:27;970.1;;;10.8;58.2
68873;BME280;55907;50.806;12.882;2023-04-22T01:44:28;970.1;;;10.8;58.2
68873;BME280;55907;50.806;12.882;2023-04-22T01:47:30;970.0;;;10.9;58.0
68873;BME280;55907;50.806;12.882;2023-04-22T01:50:32;970.0;;;10.9;58.0
68873;BME280;55907;50.806;12.882;2023-04-22T01:53:34;970.0;;;10.9;58.1
68873;BME280;55907;50.806;12.882;2023-04-22T01:56:35;969.9;;;10.9;58.1
68873;BME280;55907;50.806;12.882;2023-04-22T01:59:36;970.0;;;10.9;58.1
68873;BME280;55907;50.806;12.882;2023-04-22T02:02:38;969.9;;;10.8;57.9
68873;BME280;55907;50.806;12.882;2023-04-22T02:05:39;969.9;;;10.8;58.3
68873;BME280;55907;50.806;12.882;2023-04-22T02:08:40;969.9;;;10.8;58.2
68873;BME280;55907;50.806;12.882;2023-04-22T02:11:42;969.9;;;10.8;58.0
68873;BME280;55907;50.806;12.882;2023-04-22T02:14:44;969.9;;;10.8;58.0
68873;BME280;55907;50.806;12.882;2023-04-22T02:17:45;969.9;;;10.8;58.6
68873;BME280;55907;50.806;12.882;2023-04-22T02:20:47;970.0;;;10.8;58.3
68873;BME280;55907;50.806;12.882;2023-04-22T02:23:48;969.9;;;10.8;58.3
68873;BME280;55907;50.806;12.882;2023-04-22T02:26:50;969.9;;;10.8;58.3
68873;BME280;55907;50.806;12.882;2023-04-22T02:29:51;969.9;;;10.8;58.4
68873;BME280;55907;50.806;12.882;2023-04-22T02:32:53;969.9;;;10.7;58.6
68873;BME280;55907;50.806;12.882;2023-04-22T02:35:54;969.9;;;10.7;58.8
68873;BME280;55907;50.806;12.882;2023-04-22T02:38:56;969.9;;;10.7;58.6
68873;BME280;55907;50.806;12.882;2023-04-22T02:41:57;969.8;;;10.8;58.5
68873;BME280;55907;50.806;12.882;2023-04-22T02:44:59;969.8;;;10.8;58.4
68873;BME280;55907;50.806;12.882;2023-04-22T02:48:01;969.8;;;10.9;58.2
68873;BME280;55907;50.806;12.882;2023-04-22T02:51:02;969.8;;;10.9;58.0
68873;BME280;55907;50.806;12.882;2023-04-22T02:54:04;969.8;;;10.9;57.8
68873;BME280;55907;50.806;12.882;2023-04-22T02:57:05;969.8;;;11.0;57.7
68873;BME280;55907;50.806;12.882;2023-04-22T03:00:08;969.8;;;11.0;57.6
68873;BME280;55907;50.806;12.882;2023-04-22T03:03:08;969.7;;;11.0;58.2
68873;BME280;55907;50.806;12.882;2023-04-22T03:06:10;969.7;;;10.8;58.5
68873;BME280;55907;50.806;12.882;2023-04-22T03:09:11;969.6;;;10.7;58.5
68873;BME280;55907;50.806;12.882;2023-04-22T03:12:13;969.6;;;10.6;59.5
68873;BME280;55907;50.806;12.882;2023-04-22T03:15:14;969.6;;;10.6;59.2
68873;BME280;55907;50.806;12.882;2023-04-22T03:18:16;969.6;;;10.6;58.8
68873;BME280;55907;50.806;12.882;2023-04-22T03:21:18;969.6;;;10.8;58.0
68873;BME280;55907;50.806;12.882;2023-04-22T03:24:19;969.6;;;11.0;57.3
68873;BME280;55907;50.806;12.882;2023-04-22T03:27:21;969.7;;;11.2;56.5
68873;BME280;55907;50.806;12.882;2023-04-22T03:30:22;969.6;;;11.3;55.9
68873;BME280;55907;50.806;12.882;2023-04-22T03:33:24;969.6;;;11.5;55.7
68873;BME280;55907;50.806;12.882;2023-04-22T03:36:26;969.6;;;11.6;55.1
68873;BME280;55907;50.806;12.882;2023-04-22T03:39:27;969.6;;;11.7;55.0
68873;BME280;55907;50.806;12.882;2023-04-22T03:42:28;969.6;;;11.8;54.6
68873;BME280;55907;50.806;12.882;2023-04-22T03:45:30;969.7;;;11.8;54.5
68873;BME280;55907;50.806;12.882;2023-04-22T03:48:31;969.7;;;11.8;54.7
68873;BME280;55907;50.806;12.882;2023-04-22T03:51:33;969.7;;;11.8;54.7
68873;BME280;55907;50.806;12.882;2023-04-22T03:54:35;969.7;;;11.7;54.9
68873;BME280;55907;50.806;12.882;2023-04-22T03:57:36;969.6;;;11.6;55.3
68873;BME280;55907;50.806;12.882;2023-04-22T04:00:38;969.6;;;11.6;55.5
68873;BME280;55907;50.806;12.882;2023-04-22T04:03:39;969.6;;;11.5;55.9
68873;BME280;55907;50.806;12.882;2023-04-22T04:06:41;969.6;;;11.4;56.0
68873;BME280;55907;50.806;12.882;2023-04-22T04:09:42;969.6;;;11.4;55.8
68873;BME280;55907;50.806;12.882;2023-04-22T04:12:44;969.6;;;11.4;56.3
68873;BME280;55907;50.806;12.882;2023-04-22T04:15:45;969.7;;;11.4;56.0
68873;BME280;55907;50.806;12.882;2023-04-22T04:18:48;969.8;;;11.4;56.8
68873;BME280;55907;50.806;12.882;2023-04-22T04:21:48;969.7;;;11.2;57.5
68873;BME280;55907;50.806;12.882;2023-04-22T04:24:50;969.7;;;11.1;57.6
68873;BME280;55907;50.806;12.882;2023-04-22T04:27:51;969.7;;;10.9;58.0
68873;BME280;55907;50.806;12.882;2023-04-22T04:30:53;969.6;;;10.9;58.0
68873;BME280;55907;50.806;12.882;2023-04-22T04:33:54;969.7;;;10.9;57.8
68873;BME280;55907;50.806;12.882;2023-04-22T04:36:56;969.7;;;11.0;57.3
68873;BME280;55907;50.806;12.882;2023-04-22T04:39:57;969.7;;;11.2;56.8
68873;BME280;55907;50.806;12.882;2023-04-22T04:42:59;969.7;;;11.4;56.3
68873;BME280;55907;50.806;12.882;2023-04-22T04:46:00;969.6;;;11.6;55.7
68873;BME280;55907;50.806;12.882;2023-04-22T04:49:02;969.6;;;11.7;55.6
68873;BME280;55907;50.806;12.882;2023-04-22T04:52:04;969.6;;;11.9;55.4
68873;BME280;55907;50.806;12.882;2023-04-22T04:55:05;969.6;;;12.1;54.1
68873;BME280;55907;50.806;12.882;2023-04-22T04:58:07;969.6;;;12.3;54.0
68873;BME280;55907;50.806;12.882;2023-04-22T05:01:08;969.7;;;12.5;53.4
68873;BME280;55907;50.806;12.882;2023-04-22T05:04:10;969.7;;;12.7;52.1
68873;BME280;55907;50.806;12.882;2023-04-22T05:07:11;969.7;;;13.1;51.2
68873;BME280;55907;50.806;12.882;2023-04-22T05:10:13;969.6;;;14.1;49.3
68873;BME280;55907;50.806;12.882;2023-04-22T05:13:14;969.7;;;15.4;46.3
68873;BME280;55907;50.806;12.882;2023-04-22T05:16:15;969.7;;;16.6;42.2
68873;BME280;55907;50.806;12.882;2023-04-22T05:22:19;969.7;;;19.0;37.8
68873;BME280;55907;50.806;12.882;2023-04-22T05:25:20;969.8;;;20.0;35.9
68873;BME280;55907;50.806;12.882;2023-04-22T05:28:21;969.8;;;21.1;33.9
68873;BME280;55907;50.806;12.882;2023-04-22T05:31:23;969.8;;;22.1;32.6
68873;BME280;55907;50.806;12.882;2023-04-22T05:34:24;969.9;;;23.0;30.5
68873;BME280;55907;50.806;12.882;2023-04-22T05:37:26;969.9;;;23.8;29.0
68873;BME280;55907;50.806;12.882;2023-04-22T05:40:27;970.0;;;24.0;29.4
68873;BME280;55907;50.806;12.882;2023-04-22T05:43:28;970.0;;;23.8;27.8
68873;BME280;55907;50.806;12.882;2023-04-22T05:46:30;969.9;;;23.4;28.2
68873;BME280;55907;50.806;12.882;2023-04-22T05:49:31;969.9;;;23.2;29.3
68873;BME280;55907;50.806;12.882;2023-04-22T05:52:33;970.0;;;23.4;28.7
68873;BME280;55907;50.806;12.882;2023-04-22T05:55:34;970.0;;;23.8;27.9
68873;BME280;55907;50.806;12.882;2023-04-22T05:58:35;970.0;;;23.0;28.8
68873;BME280;55907;50.806;12.882;2023-04-22T06:01:37;970.0;;;22.5;29.5
68873;BME280;55907;50.806;12.882;2023-04-22T06:04:38;970.1;;;22.3;29.8
68873;BME280;55907;50.806;12.882;2023-04-22T06:07:40;970.1;;;22.5;29.7
68873;BME280;55907;50.806;12.882;2023-04-22T06:10:41;970.0;;;22.8;29.5
68873;BME280;55907;50.806;12.882;2023-04-22T06:13:42;969.9;;;23.1;29.2
68873;BME280;55907;50.806;12.882;2023-04-22T06:16:44;969.9;;;23.4;28.4
68873;BME280;55907;50.806;12.882;2023-04-22T06:19:45;970.0;;;22.6;29.3
68873;BME280;55907;50.806;12.882;2023-04-22T06:22:47;970.0;;;22.4;29.8
68873;BME280;55907;50.806;12.882;2023-04-22T06:25:48;969.9;;;22.5;30.0
68873;BME280;55907;50.806;12.882;2023-04-22T06:28:50;969.9;;;22.9;30.2
68873;BME280;55907;50.806;12.882;2023-04-22T06:31:51;969.9;;;23.4;29.8
68873;BME280;55907;50.806;12.882;2023-04-22T06:34:52;970.0;;;23.9;28.4
68873;BME280;55907;50.806;12.882;2023-04-22T06:37:54;969.9;;;24.0;28.4
68873;BME280;55907;50.806;12.882;2023-04-22T06:40:55;969.9;;;24.3;28.1
68873;BME280;55907;50.806;12.882;2023-04-22T06:43:56;970.0;;;24.3;28.1
68873;BME280;55907;50.806;12.882;2023-04-22T06:46:58;969.9;;;23.9;28.4
68873;BME280;55907;50.806;12.882;2023-04-22T06:50:00;969.9;;;23.9;28.8
68873;BME280;55907;50.806;12.882;2023-04-22T06:53:01;970.0;;;23.3;28.3
68873;BME280;55907;50.806;12.882;2023-04-22T06:56:02;969.9;;;23.8;28.7
68873;BME280;55907;50.806;12.882;2023-04-22T06:59:04;969.9;;;23.9;28.4
68873;BME280;55907;50.806;12.882;2023-04-22T07:02:05;969.9;;;23.5;28.4
68873;BME280;55907;50.806;12.882;2023-04-22T07:05:07;969.9;;;23.2;28.6
68873;BME280;55907;50.806;12.882;2023-04-22T07:08:08;969.9;;;23.4;28.7
68873;BME280;55907;50.806;12.882;2023-04-22T07:11:09;969.8;;;23.2;28.8
68873;BME280;55907;50.806;12.882;2023-04-22T07:14:10;969.8;;;23.3;28.6
68873;BME280;55907;50.806;12.882;2023-04-22T07:17:12;969.9;;;23.1;28.8
68873;BME280;55907;50.806;12.882;2023-04-22T07:20:13;969.9;;;22.8;28.5
68873;BME280;55907;50.806;12.882;2023-04-22T07:23:15;969.8;;;22.1;29.2
68873;BME280;55907;50.806;12.882;2023-04-22T07:29:18;969.9;;;22.4;30.0
68873;BME280;55907;50.806;12.882;2023-04-22T07:32:19;969.9;;;22.7;28.7
68873;BME280;55907;50.806;12.882;2023-04-22T07:35:20;969.9;;;22.7;28.4
68873;BME280;55907;50.806;12.882;2023-04-22T07:38:22;969.9;;;22.5;28.3
68873;BME280;55907;50.806;12.882;2023-04-22T07:41:23;969.9;;;22.5;28.6
68873;BME280;55907;50.806;12.882;2023-04-22T07:44:25;969.9;;;22.7;28.2
68873;BME280;55907;50.806;12.882;2023-04-22T07:47:26;970.0;;;22.5;28.4
68873;BME280;55907;50.806;12.882;2023-04-22T07:50:27;969.8;;;22.3;28.3
68873;BME280;55907;50.806;12.882;2023-04-22T07:53:29;969.8;;;22.0;29.0
68873;BME280;55907;50.806;12.882;2023-04-22T07:56:30;969.8;;;22.1;29.0
68873;BME280;55907;50.806;12.882;2023-04-22T07:59:32;969.9;;;21.9;28.9
68873;BME280;55907;50.806;12.882;2023-04-22T08:02:33;969.9;;;21.9;29.1
68873;BME280;55907;50.806;12.882;2023-04-22T08:05:35;969.8;;;22.3;29.1
68873;BME280;55907;50.806;12.882;2023-04-22T08:08:36;969.8;;;22.2;28.6
68873;BME280;55907;50.806;12.882;2023-04-22T08:11:25;unavailable;;;unavailable;unavailable
68873;BME280;55907;50.806;12.882;2023-04-22T08:49:02;unavailable;;;unavailable;unavailable
68873;BME280;55907;50.806;12.882;2023-04-22T08:50:56;969.7;;;25.5;24.0
68873;BME280;55907;50.806;12.882;2023-04-22T08:53:57;969.7;;;26.0;23.6
68873;BME280;55907;50.806;12.882;2023-04-22T09:00:01;969.8;;;26.1;23.4
68873;BME280;55907;50.806;12.882;2023-04-22T09:03:04;969.7;;;27.0;22.7
68873;BME280;55907;50.806;12.882;2023-04-22T09:06:03;969.7;;;27.1;22.4
68873;BME280;55907;50.806;12.882;2023-04-22T09:09:04;969.7;;;27.1;23.1
68873;BME280;55907;50.806;12.882;2023-04-22T09:12:05;969.7;;;27.2;22.6
68873;BME280;55907;50.806;12.882;2023-04-22T09:15:07;969.6;;;26.9;22.9
68873;BME280;55907;50.806;12.882;2023-04-22T09:18:08;969.6;;;26.7;22.6
68873;BME280;55907;50.806;12.882;2023-04-22T09:21:11;969.6;;;26.9;22.7
68873;BME280;55907;50.806;12.882;2023-04-22T09:24:11;969.5;;;27.3;23.1
68873;BME280;55907;50.806;12.882;2023-04-22T09:27:12;969.5;;;27.5;23.1
68873;BME280;55907;50.806;12.882;2023-04-22T09:30:16;969.4;;;27.5;23.2
68873;BME280;55907;50.806;12.882;2023-04-22T09:36:20;969.5;;;26.7;22.7
68873;BME280;55907;50.806;12.882;2023-04-22T09:39:18;969.4;;;26.1;23.1
68873;BME280;55907;50.806;12.882;2023-04-22T09:42:20;969.4;;;26.0;23.8
68873;BME280;55907;50.806;12.882;2023-04-22T09:45:24;969.4;;;26.1;23.4
68873;BME280;55907;50.806;12.882;2023-04-22T09:49:52;unavailable;;;unavailable;unavailable
68873;BME280;55907;50.806;12.882;2023-04-22T09:50:58;969.4;;;25.7;23.4
68873;BME280;55907;50.806;12.882;2023-04-22T09:51:23;969.4;;;25.8;23.9
68873;BME280;55907;50.806;12.882;2023-04-22T09:52:41;unavailable;;;unavailable;unavailable
68873;BME280;55907;50.806;12.882;2023-04-22T09:52:42;unavailable;;;unavailable;unavailable
68873;BME280;55907;50.806;12.882;2023-04-22T09:55:11;unavailable;;;unavailable;unavailable
68873;BME280;55907;50.806;12.882;2023-04-22T09:56:44;969.4;;;25.4;24.0
68873;BME280;55907;50.806;12.882;2023-04-22T09:58:22;unavailable;;;unavailable;unavailable
68873;BME280;55907;50.806;12.882;2023-04-22T09:58:51;969.4;;;25.4;24.1
68873;BME280;55907;50.806;12.882;2023-04-22T10:00:27;969.4;;;25.2;24.6
68873;BME280;55907;50.806;12.882;2023-04-22T10:03:13;unavailable;;;unavailable;unavailable
68873;BME280;55907;50.806;12.882;2023-04-22T10:03:29;969.5;;;25.0;24.5
68873;BME280;55907;50.806;12.882;2023-04-22T10:06:30;969.4;;;24.9;24.8
68873;BME280;55907;50.806;12.882;2023-04-22T10:07:05;unavailable;;;unavailable;unavailable
68873;BME280;55907;50.806;12.882;2023-04-22T10:07:06;969.4;;;25.0;24.3
68873;BME280;55907;50.806;12.882;2023-04-22T10:08:57;unavailable;;;unavailable;unavailable
68873;BME280;55907;50.806;12.882;2023-04-22T10:11:16;969.4;;;24.9;24.2
68873;BME280;55907;50.806;12.882;2023-04-22T10:12:33;969.4;;;25.0;25.0
68873;BME280;55907;50.806;12.882;2023-04-22T10:15:37;969.3;;;24.8;25.5
68873;BME280;55907;50.806;12.882;2023-04-22T10:18:38;969.2;;;25.0;25.1
68873;BME280;55907;50.806;12.882;2023-04-22T10:21:37;969.3;;;25.0;24.3
68873;BME280;55907;50.806;12.882;2023-04-22T10:24:28;unavailable;;;unavailable;unavailable
68873;BME280;55907;50.806;12.882;2023-04-22T10:24:55;969.3;;;25.2;25.0
68873;BME280;55907;50.806;12.882;2023-04-22T10:26:48;unavailable;;;unavailable;unavailable
68873;BME280;55907;50.806;12.882;2023-04-22T10:28:32;969.2;;;25.5;unavailable
68873;BME280;55907;50.806;12.882;2023-04-22T10:30:43;unavailable;;;unavailable;unavailable
68873;BME280;55907;50.806;12.882;2023-04-22T10:31:23;969.2;;;25.1;24.7
68873;BME280;55907;50.806;12.882;2023-04-22T10:33:42;969.3;;;24.6;24.6
68873;BME280;55907;50.806;12.882;2023-04-22T10:36:53;969.4;;;24.5;25.0
68873;BME280;55907;50.806;12.882;2023-04-22T10:40:05;969.3;;;24.1;25.0
68873;BME280;55907;50.806;12.882;2023-04-22T10:42:49;969.3;;;24.1;24.7
68873;BME280;55907;50.806;12.882;2023-04-22T10:45:48;969.2;;;24.4;24.9
68873;BME280;55907;50.806;12.882;2023-04-22T10:48:49;969.3;;;24.5;24.6
68873;BME280;55907;50.806;12.882;2023-04-22T10:51:52;969.3;;;24.2;24.9
68873;BME280;55907;50.806;12.882;2023-04-22T10:54:56;969.2;;;24.4;25.0
68873;BME280;55907;50.806;12.882;2023-04-22T10:57:54;969.3;;;24.3;25.3
68873;BME280;55907;50.806;12.882;2023-04-22T11:00:55;969.2;;;24.4;25.2
68873;BME280;55907;50.806;12.882;2023-04-22T11:07:11;969.2;;;24.3;25.3
68873;BME280;55907;50.806;12.882;2023-04-22T11:10:01;969.2;;;24.0;24.8
68873;BME280;55907;50.806;12.882;2023-04-22T11:13:01;969.1;;;24.1;25.6
68873;BME280;55907;50.806;12.882;2023-04-22T11:16:02;969.0;;;24.4;25.0
68873;BME280;55907;50.806;12.882;2023-04-22T11:19:03;969.0;;;24.6;24.4
68873;BME280;55907;50.806;12.882;2023-04-22T11:22:05;968.9;;;24.6;24.0
68873;BME280;55907;50.806;12.882;2023-04-22T11:25:07;968.9;;;24.7;24.0
68873;BME280;55907;50.806;12.882;2023-04-22T11:28:08;968.9;;;24.7;24.7
68873;BME280;55907;50.806;12.882;2023-04-22T11:31:09;968.9;;;24.5;24.2
68873;BME280;55907;50.806;12.882;2023-04-22T11:34:11;968.8;;;24.5;24.2
68873;BME280;55907;50.806;12.882;2023-04-22T11:37:12;968.9;;;24.5;23.8
68873;BME280;55907;50.806;12.882;2023-04-22T11:40:15;968.9;;;24.6;24.1
68873;BME280;55907;50.806;12.882;2023-04-22T11:43:15;968.9;;;24.7;24.6
68873;BME280;55907;50.806;12.882;2023-04-22T11:49:17;968.7;;;24.7;24.4
68873;BME280;55907;50.806;12.882;2023-04-22T11:52:19;968.7;;;24.5;25.1
68873;BME280;55907;50.806;12.882;2023-04-22T11:55:23;968.8;;;24.0;24.6
68873;BME280;55907;50.806;12.882;2023-04-22T11:58:24;968.8;;;23.4;25.1
68873;BME280;55907;50.806;12.882;2023-04-22T12:01:23;968.7;;;23.1;26.0
68873;BME280;55907;50.806;12.882;2023-04-22T12:04:24;968.8;;;22.8;26.8
68873;BME280;55907;50.806;12.882;2023-04-22T12:07:26;968.8;;;22.8;26.6
68873;BME280;55907;50.806;12.882;2023-04-22T12:10:27;968.7;;;23.2;26.7
68873;BME280;55907;50.806;12.882;2023-04-22T12:13:30;968.7;;;23.7;26.1
68873;BME280;55907;50.806;12.882;2023-04-22T12:16:38;968.7;;;23.9;25.8
68873;BME280;55907;50.806;12.882;2023-04-22T12:19:31;968.6;;;23.8;25.1
68873;BME280;55907;50.806;12.882;2023-04-22T12:22:33;968.6;;;24.0;25.1
68873;BME280;55907;50.806;12.882;2023-04-22T12:25:34;968.7;;;23.8;25.3
68873;BME280;55907;50.806;12.882;2023-04-22T12:28:36;968.6;;;23.7;26.0
68873;BME280;55907;50.806;12.882;2023-04-22T12:31:37;968.5;;;23.9;25.5
68873;BME280;55907;50.806;12.882;2023-04-22T12:34:38;968.6;;;24.0;25.3
68873;BME280;55907;50.806;12.882;2023-04-22T12:37:41;968.5;;;24.1;26.4
68873;BME280;55907;50.806;12.882;2023-04-22T12:40:41;968.5;;;24.2;24.6
68873;BME280;55907;50.806;12.882;2023-04-22T12:43:43;968.5;;;24.2;24.6
68873;BME280;55907;50.806;12.882;2023-04-22T12:46:44;968.5;;;24.1;25.0
68873;BME280;55907;50.806;12.882;2023-04-22T12:49:45;968.4;;;24.4;26.8
68873;BME280;55907;50.806;12.882;2023-04-22T12:52:47;968.4;;;24.4;25.8
68873;BME280;55907;50.806;12.882;2023-04-22T12:55:48;968.4;;;24.1;25.4
68873;BME280;55907;50.806;12.882;2023-04-22T12:58:49;968.4;;;24.1;25.5
68873;BME280;55907;50.806;12.882;2023-04-22T13:01:51;968.3;;;24.4;26.2
68873;BME280;55907;50.806;12.882;2023-04-22T13:04:52;968.3;;;24.2;26.0
68873;BME280;55907;50.806;12.882;2023-04-22T13:07:54;968.2;;;24.3;26.2
68873;BME280;55907;50.806;12.882;2023-04-22T13:10:55;968.2;;;24.4;26.1
68873;BME280;55907;50.806;12.882;2023-04-22T13:13:56;968.2;;;24.3;26.7
68873;BME280;55907;50.806;12.882;2023-04-22T13:16:58;968.2;;;24.3;26.3
68873;BME280;55907;50.806;12.882;2023-04-22T13:20:00;968.3;;;24.0;26.5
68873;BME280;55907;50.806;12.882;2023-04-22T13:23:01;968.2;;;23.9;26.7
68873;BME280;55907;50.806;12.882;2023-04-22T13:26:02;968.1;;;24.0;26.8
68873;BME280;55907;50.806;12.882;2023-04-22T13:29:04;968.0;;;24.0;26.7
68873;BME280;55907;50.806;12.882;2023-04-22T13:32:06;968.0;;;24.1;27.3
68873;BME280;55907;50.806;12.882;2023-04-22T13:35:07;967.9;;;24.4;27.2
68873;BME280;55907;50.806;12.882;2023-04-22T13:38:08;967.9;;;24.4;26.7
68873;BME280;55907;50.806;12.882;2023-04-22T13:41:09;967.8;;;24.5;26.5
68873;BME280;55907;50.806;12.882;2023-04-22T13:44:11;967.8;;;24.0;27.2
68873;BME280;55907;50.806;12.882;2023-04-22T13:47:12;967.8;;;24.1;27.3
68873;BME280;55907;50.806;12.882;2023-04-22T13:50:13;967.7;;;24.2;27.5
68873;BME280;55907;50.806;12.882;2023-04-22T13:53:15;967.7;;;24.1;27.7
68873;BME280;55907;50.806;12.882;2023-04-22T13:56:16;967.7;;;24.2;28.2
68873;BME280;55907;50.806;12.882;2023-04-22T13:59:18;967.6;;;24.1;28.2
68873;BME280;55907;50.806;12.882;2023-04-22T14:02:19;967.5;;;24.2;28.4
68873;BME280;55907;50.806;12.882;2023-04-22T14:05:20;967.5;;;24.2;28.8
68873;BME280;55907;50.806;12.882;2023-04-22T14:08:22;967.6;;;23.9;29.8
68873;BME280;55907;50.806;12.882;2023-04-22T14:11:23;967.5;;;23.8;29.4
68873;BME280;55907;50.806;12.882;2023-04-22T14:14:25;967.5;;;23.8;29.5
68873;BME280;55907;50.806;12.882;2023-04-22T14:17:26;967.6;;;23.6;29.6
68873;BME280;55907;50.806;12.882;2023-04-22T14:20:28;967.4;;;23.1;30.4
68873;BME280;55907;50.806;12.882;2023-04-22T14:23:29;967.4;;;23.1;30.3
68873;BME280;55907;50.806;12.882;2023-04-22T14:26:30;967.4;;;23.1;30.4
68873;BME280;55907;50.806;12.882;2023-04-22T14:29:32;967.3;;;22.9;30.5
68873;BME280;55907;50.806;12.882;2023-04-22T14:32:34;967.4;;;22.7;30.6
68873;BME280;55907;50.806;12.882;2023-04-22T14:35:35;967.2;;;22.8;30.5
68873;BME280;55907;50.806;12.882;2023-04-22T14:38:36;967.3;;;22.6;31.2
68873;BME280;55907;50.806;12.882;2023-04-22T14:41:37;967.2;;;22.8;30.6
68873;BME280;55907;50.806;12.882;2023-04-22T14:44:39;967.1;;;22.9;30.7
68873;BME280;55907;50.806;12.882;2023-04-22T14:47:40;967.1;;;23.0;30.6
68873;BME280;55907;50.806;12.882;2023-04-22T14:50:42;967.1;;;22.9;31.1
68873;BME280;55907;50.806;12.882;2023-04-22T14:53:43;967.1;;;22.9;30.7
68873;BME280;55907;50.806;12.882;2023-04-22T14:56:44;967.1;;;22.7;30.8
68873;BME280;55907;50.806;12.882;2023-04-22T14:59:46;967.1;;;22.6;31.1
68873;BME280;55907;50.806;12.882;2023-04-22T15:02:48;967.0;;;22.7;31.0
68873;BME280;55907;50.806;12.882;2023-04-22T15:05:49;967.0;;;22.6;31.3
68873;BME280;55907;50.806;12.882;2023-04-22T15:11:52;967.0;;;22.7;31.7
68873;BME280;55907;50.806;12.882;2023-04-22T15:14:53;966.9;;;22.7;30.9
68873;BME280;55907;50.806;12.882;2023-04-22T15:17:54;966.8;;;22.6;31.2
68873;BME280;55907;50.806;12.882;2023-04-22T15:20:56;966.8;;;22.8;31.2
68873;BME280;55907;50.806;12.882;2023-04-22T15:23:57;966.7;;;22.8;31.1
68873;BME280;55907;50.806;12.882;2023-04-22T15:26:59;966.8;;;22.8;31.2
68873;BME280;55907;50.806;12.882;2023-04-22T15:30:00;966.8;;;22.5;31.4
68873;BME280;55907;50.806;12.882;2023-04-22T15:33:02;966.8;;;22.3;31.7
68873;BME280;55907;50.806;12.882;2023-04-22T15:36:04;966.7;;;22.1;32.4
68873;BME280;55907;50.806;12.882;2023-04-22T15:39:05;966.7;;;22.1;32.7
68873;BME280;55907;50.806;12.882;2023-04-22T15:42:06;966.7;;;22.0;32.5
68873;BME280;55907;50.806;12.882;2023-04-22T15:45:08;966.7;;;21.8;33.1
68873;BME280;55907;50.806;12.882;2023-04-22T15:48:09;966.7;;;21.7;33.1
68873;BME280;55907;50.806;12.882;2023-04-22T15:51:10;966.7;;;21.6;33.4
68873;BME280;55907;50.806;12.882;2023-04-22T15:54:12;966.6;;;21.5;33.7
68873;BME280;55907;50.806;12.882;2023-04-22T15:57:13;966.6;;;21.4;34.2
68873;BME280;55907;50.806;12.882;2023-04-22T16:00:15;966.6;;;21.5;34.0
68873;BME280;55907;50.806;12.882;2023-04-22T16:03:16;966.7;;;21.5;34.0
68873;BME280;55907;50.806;12.882;2023-04-22T16:06:18;966.7;;;21.4;33.9
68873;BME280;55907;50.806;12.882;2023-04-22T16:09:20;966.7;;;21.3;33.9
68873;BME280;55907;50.806;12.882;2023-04-22T16:12:20;966.7;;;21.3;34.2
68873;BME280;55907;50.806;12.882;2023-04-22T16:15:22;966.6;;;21.3;34.0
68873;BME280;55907;50.806;12.882;2023-04-22T16:18:23;966.7;;;21.4;34.2
68873;BME280;55907;50.806;12.882;2023-04-22T16:21:24;966.7;;;21.3;34.3
68873;BME280;55907;50.806;12.882;2023-04-22T16:24:26;966.6;;;21.2;34.3
68873;BME280;55907;50.806;12.882;2023-04-22T16:27:27;966.6;;;21.2;34.9
68873;BME280;55907;50.806;12.882;2023-04-22T16:30:29;966.6;;;21.2;34.0
68873;BME280;55907;50.806;12.882;2023-04-22T16:33:31;966.5;;;21.0;34.1
68873;BME280;55907;50.806;12.882;2023-04-22T16:36:32;966.6;;;20.8;34.4
68873;BME280;55907;50.806;12.882;2023-04-22T16:39:33;966.7;;;20.7;34.2
68873;BME280;55907;50.806;12.882;2023-04-22T16:42:35;966.6;;;20.6;34.6
68873;BME280;55907;50.806;12.882;2023-04-22T16:45:36;966.6;;;20.6;34.9
68873;BME280;55907;50.806;12.882;2023-04-22T16:48:37;966.6;;;20.6;34.8
68873;BME280;55907;50.806;12.882;2023-04-22T16:51:39;966.6;;;20.6;34.9
68873;BME280;55907;50.806;12.882;2023-04-22T16:54:40;966.5;;;20.6;35.1
68873;BME280;55907;50.806;12.882;2023-04-22T16:57:42;966.6;;;20.5;35.4
68873;BME280;55907;50.806;12.882;2023-04-22T17:00:43;966.6;;;20.4;35.9